createdAt,value
2022-12-31T00:01:07.465Z,10.38
2022-12-31T00:03:35.553Z,15.40
2022-12-31T00:06:12.225Z,11.85
2022-12-31T00:08:39.664Z,14.50
2022-12-31T00:11:07.017Z,10.00
2022-12-31T00:13:34.676Z,9.02
2022-12-31T00:16:12.458Z,9.85
2022-12-31T00:18:48.157Z,9.30
2022-12-31T00:21:17.641Z,7.47
2022-12-31T00:23:45.312Z,12.55
2022-12-31T00:26:16.227Z,12.40
2022-12-31T00:28:44.429Z,21.98
2022-12-31T00:31:13.174Z,11.30
2022-12-31T00:33:40.929Z,20.65
2022-12-31T00:36:13.116Z,16.58
2022-12-31T00:38:42.407Z,16.33
2022-12-31T00:41:10.396Z,4.97
2022-12-31T00:43:41.543Z,13.82
2022-12-31T00:46:10.375Z,23.67
2022-12-31T00:48:38.682Z,20.92
2022-12-31T00:51:08.945Z,15.27
2022-12-31T00:53:38.820Z,14.05
2022-12-31T00:56:13.170Z,18.58
2022-12-31T00:58:41.272Z,19.58
2022-12-31T01:01:23.962Z,11.70
2022-12-31T01:03:54.485Z,9.23
2022-12-31T01:06:22.313Z,18.30
2022-12-31T01:08:51.377Z,12.05
2022-12-31T01:11:19.610Z,7.22
2022-12-31T01:13:50.791Z,6.13
2022-12-31T01:16:20.456Z,24.85
2022-12-31T01:18:48.538Z,20.05
2022-12-31T01:21:17.869Z,17.60
2022-12-31T01:23:45.703Z,28.33
2022-12-31T01:26:18.284Z,13.63
2022-12-31T01:28:46.332Z,22.13
2022-12-31T01:31:17.298Z,13.23
2022-12-31T01:33:46.076Z,25.98
2022-12-31T01:36:23.391Z,4.70
2022-12-31T01:38:54.481Z,19.42
2022-12-31T01:41:38.721Z,10.38
2022-12-31T01:44:12.212Z,28.65
2022-12-31T01:46:49.089Z,18.98
2022-12-31T01:49:24.895Z,12.63
2022-12-31T01:52:01.859Z,10.10
2022-12-31T01:54:31.536Z,23.85
2022-12-31T01:57:01.557Z,10.77
2022-12-31T01:59:31.031Z,23.58
2022-12-31T02:02:00.920Z,21.35
2022-12-31T02:04:29.934Z,20.17
2022-12-31T02:07:03.937Z,19.30
2022-12-31T02:09:34.430Z,15.77
2022-12-31T02:12:01.831Z,31.48
2022-12-31T02:14:32.780Z,21.98
2022-12-31T02:17:15.044Z,24.17
2022-12-31T02:20:05.151Z,12.60
2022-12-31T02:22:32.902Z,20.25
2022-12-31T02:25:18.981Z,13.25
2022-12-31T02:28:46.443Z,13.45
2022-12-31T02:31:34.736Z,26.60
2022-12-31T02:34:11.552Z,27.15
2022-12-31T02:36:43.088Z,27.10
2022-12-31T02:39:14.135Z,19.15
2022-12-31T02:41:51.057Z,10.43
2022-12-31T02:44:24.498Z,12.00
2022-12-31T02:47:09.884Z,7.25
2022-12-31T02:49:42.816Z,15.88
2022-12-31T02:52:28.381Z,14.93
2022-12-31T02:55:17.799Z,9.18
2022-12-31T02:58:18.165Z,22.15
2022-12-31T03:01:11.652Z,9.23
2022-12-31T03:03:39.924Z,6.60
2022-12-31T03:06:09.216Z,3.80
2022-12-31T03:08:56.995Z,11.15
2022-12-31T03:11:43.153Z,15.75
2022-12-31T03:14:10.968Z,5.28
2022-12-31T03:16:38.635Z,6.38
2022-12-31T03:19:25.722Z,4.55
2022-12-31T03:22:12.081Z,11.95
2022-12-31T03:24:57.798Z,13.65
2022-12-31T03:27:26.712Z,5.25
2022-12-31T03:29:54.310Z,13.65
2022-12-31T03:32:21.588Z,9.20
2022-12-31T03:34:49.003Z,5.18
2022-12-31T03:37:16.334Z,5.00
2022-12-31T03:39:43.802Z,6.75
2022-12-31T03:42:11.122Z,3.53
2022-12-31T03:44:38.897Z,0.85
2022-12-31T03:47:06.194Z,0.15
2022-12-31T03:49:33.943Z,5.43
2022-12-31T03:52:03.051Z,2.85
2022-12-31T03:54:30.308Z,3.25
2022-12-31T03:57:00.285Z,0.50
2022-12-31T03:59:27.819Z,0.85
2022-12-31T04:01:55.501Z,0.13
2022-12-31T04:04:22.879Z,1.05
2022-12-31T04:06:50.196Z,1.95
2022-12-31T04:09:17.548Z,0.38
2022-12-31T04:11:44.950Z,0.13
2022-12-31T04:14:12.342Z,0.20
2022-12-31T04:16:40.235Z,1.45
2022-12-31T04:19:07.979Z,0.22
2022-12-31T04:21:35.635Z,1.75
2022-12-31T04:24:03.210Z,0.30
2022-12-31T04:26:30.909Z,0.10
2022-12-31T04:28:58.873Z,0.45
2022-12-31T04:31:27.324Z,0.40
2022-12-31T04:33:55.060Z,0.20
2022-12-31T04:36:22.705Z,0.35
2022-12-31T04:38:50.368Z,0.77
2022-12-31T04:41:18.145Z,2.30
2022-12-31T04:43:56.517Z,2.55
2022-12-31T04:46:30.701Z,4.40
2022-12-31T04:48:58.518Z,1.58
2022-12-31T04:51:27.782Z,1.70
2022-12-31T04:53:55.147Z,2.45
2022-12-31T04:56:22.872Z,5.43
2022-12-31T04:58:50.732Z,7.05
2022-12-31T05:01:18.337Z,7.57
2022-12-31T05:03:46.233Z,1.48
2022-12-31T05:06:16.850Z,4.72
2022-12-31T05:08:45.131Z,8.77
2022-12-31T05:11:12.663Z,7.95
2022-12-31T05:13:40.622Z,10.23
2022-12-31T05:16:08.600Z,13.60
2022-12-31T05:18:36.745Z,8.05
2022-12-31T05:21:05.720Z,8.10
2022-12-31T05:23:35.644Z,12.40
2022-12-31T05:26:03.546Z,10.45
2022-12-31T05:28:32.594Z,15.00
2022-12-31T05:31:00.738Z,10.25
2022-12-31T05:33:33.879Z,9.05
2022-12-31T05:36:01.690Z,38.08
2022-12-31T05:38:29.106Z,23.95
2022-12-31T05:41:01.610Z,12.75
2022-12-31T05:43:29.744Z,11.57
2022-12-31T05:45:57.475Z,7.30
2022-12-31T05:48:25.188Z,22.95
2022-12-31T05:50:52.896Z,16.10
2022-12-31T05:53:20.343Z,12.55
2022-12-31T05:55:50.707Z,15.50
2022-12-31T05:58:18.417Z,11.02
2022-12-31T06:00:46.174Z,16.90
2022-12-31T06:03:13.638Z,16.58
2022-12-31T06:05:43.598Z,6.65
2022-12-31T06:08:12.208Z,20.08
2022-12-31T06:10:40.234Z,6.70
2022-12-31T06:13:11.482Z,17.50
2022-12-31T06:15:40.235Z,12.32
2022-12-31T06:18:08.125Z,18.20
2022-12-31T06:20:38.859Z,18.35
2022-12-31T06:23:07.233Z,27.60
2022-12-31T06:25:37.215Z,17.10
2022-12-31T06:28:05.915Z,14.00
2022-12-31T06:30:35.905Z,26.13
2022-12-31T06:33:06.314Z,18.50
2022-12-31T06:35:33.886Z,17.25
2022-12-31T06:38:01.736Z,13.57
2022-12-31T06:40:29.048Z,8.57
2022-12-31T06:43:00.078Z,23.98
2022-12-31T06:45:28.292Z,24.70
2022-12-31T06:47:55.592Z,23.50
2022-12-31T06:50:22.999Z,7.05
2022-12-31T06:52:51.472Z,21.27
2022-12-31T06:55:23.613Z,17.45
2022-12-31T06:57:51.491Z,11.80
2022-12-31T07:00:19.343Z,12.75
2022-12-31T07:03:24.336Z,23.10
2022-12-31T07:05:58.622Z,6.68
2022-12-31T07:08:38.017Z,7.57
2022-12-31T07:11:21.589Z,6.65
2022-12-31T07:14:10.691Z,24.38
2022-12-31T07:16:54.626Z,13.15
2022-12-31T07:19:28.819Z,16.75
2022-12-31T07:21:58.909Z,17.13
2022-12-31T07:24:27.009Z,30.40
2022-12-31T07:27:10.729Z,12.48
2022-12-31T07:30:10.452Z,7.63
2022-12-31T07:33:02.838Z,14.48
2022-12-31T07:35:38.000Z,11.10
2022-12-31T07:38:22.108Z,22.23
2022-12-31T07:41:09.659Z,15.55
2022-12-31T07:43:37.817Z,8.07
2022-12-31T07:46:34.355Z,8.05
2022-12-31T07:49:02.353Z,12.98
2022-12-31T07:51:30.743Z,25.67
2022-12-31T07:53:59.209Z,13.32
2022-12-31T07:56:26.662Z,6.45
2022-12-31T07:59:28.190Z,20.65
2022-12-31T08:02:05.397Z,21.85
2022-12-31T08:04:47.737Z,10.88
2022-12-31T08:07:41.154Z,22.42
2022-12-31T08:10:34.303Z,18.55
2022-12-31T08:13:05.368Z,19.58
2022-12-31T08:15:33.211Z,11.70
2022-12-31T08:18:01.301Z,20.95
2022-12-31T08:20:32.518Z,18.05
2022-12-31T08:23:50.260Z,24.83
2022-12-31T08:26:26.017Z,24.00
2022-12-31T08:29:26.324Z,19.33
2022-12-31T08:32:39.408Z,17.77
2022-12-31T08:35:32.871Z,4.85
2022-12-31T08:38:46.085Z,30.85
2022-12-31T08:41:31.701Z,24.83
2022-12-31T08:44:17.260Z,21.50
2022-12-31T08:46:51.952Z,26.27
2022-12-31T08:49:19.527Z,13.48
2022-12-31T08:51:47.636Z,21.75
2022-12-31T08:54:15.423Z,14.43
2022-12-31T08:56:58.931Z,24.58
2022-12-31T08:59:35.210Z,19.75
2022-12-31T09:02:08.480Z,17.48
2022-12-31T09:04:49.682Z,39.28
2022-12-31T09:07:23.515Z,22.50
2022-12-31T09:10:11.609Z,32.08
2022-12-31T09:12:53.992Z,27.40
2022-12-31T09:15:40.276Z,6.78
2022-12-31T09:18:09.825Z,26.77
2022-12-31T09:20:44.992Z,29.90
2022-12-31T09:23:13.481Z,21.45
2022-12-31T09:26:26.979Z,17.75
2022-12-31T09:29:27.130Z,13.70
2022-12-31T09:32:06.396Z,17.67
2022-12-31T09:35:09.788Z,13.68
2022-12-31T09:37:47.589Z,25.25
2022-12-31T09:40:23.703Z,23.50
2022-12-31T09:43:00.224Z,27.30
2022-12-31T09:45:45.409Z,37.33
2022-12-31T09:48:53.116Z,21.80
2022-12-31T09:51:26.530Z,26.63
2022-12-31T09:54:11.709Z,35.22
2022-12-31T09:56:47.676Z,18.08
2022-12-31T09:59:28.288Z,30.45
2022-12-31T10:02:11.850Z,26.08
2022-12-31T10:04:59.340Z,19.77
2022-12-31T10:07:44.873Z,13.50
2022-12-31T10:13:12.291Z,18.08
2022-12-31T10:16:14.006Z,17.45
2022-12-31T10:18:50.043Z,17.80
2022-12-31T10:21:45.141Z,26.27
2022-12-31T10:24:34.319Z,16.70
2022-12-31T10:27:29.390Z,19.70
2022-12-31T10:30:13.915Z,19.52
2022-12-31T10:33:02.964Z,17.55
2022-12-31T10:35:47.964Z,15.18
2022-12-31T10:38:29.854Z,15.85
2022-12-31T10:41:08.522Z,7.65
2022-12-31T10:44:03.930Z,10.27
2022-12-31T10:46:43.391Z,15.20
2022-12-31T10:49:49.475Z,10.70
2022-12-31T10:52:22.801Z,10.55
2022-12-31T10:55:08.132Z,18.38
2022-12-31T10:57:51.997Z,5.85
2022-12-31T11:00:20.565Z,1.95
2022-12-31T11:02:48.448Z,7.55
2022-12-31T11:05:34.444Z,6.38
2022-12-31T11:08:31.467Z,7.68
2022-12-31T11:11:01.695Z,5.55
2022-12-31T11:14:08.075Z,7.88
2022-12-31T11:16:40.403Z,3.42
2022-12-31T11:19:14.803Z,1.23
2022-12-31T11:22:09.872Z,6.38
2022-12-31T11:25:20.242Z,5.80
2022-12-31T11:28:23.385Z,1.63
2022-12-31T11:31:17.543Z,3.50
2022-12-31T11:34:12.758Z,3.20
2022-12-31T11:37:17.851Z,2.65
2022-12-31T11:40:04.843Z,3.17
2022-12-31T11:43:04.591Z,0.52
2022-12-31T11:45:32.464Z,2.53
2022-12-31T11:48:32.386Z,2.47
2022-12-31T11:51:07.517Z,3.03
2022-12-31T11:53:46.577Z,4.68
2022-12-31T11:56:24.743Z,3.30
2022-12-31T11:58:54.545Z,0.63
2022-12-31T12:01:47.042Z,1.80
2022-12-31T12:04:17.320Z,3.13
2022-12-31T12:06:46.149Z,1.23
2022-12-31T12:09:28.352Z,1.15
2022-12-31T12:12:04.451Z,0.57
2022-12-31T12:14:38.196Z,3.85
2022-12-31T12:17:22.340Z,1.20
2022-12-31T12:19:55.118Z,4.85
2022-12-31T12:22:27.019Z,6.68
2022-12-31T12:25:03.629Z,11.65
2022-12-31T12:27:33.944Z,15.80
2022-12-31T12:30:22.807Z,8.93
2022-12-31T12:32:57.212Z,28.58
2022-12-31T12:35:30.819Z,16.15
2022-12-31T12:38:13.688Z,14.55
2022-12-31T12:40:41.202Z,11.45
2022-12-31T12:43:27.436Z,9.15
2022-12-31T12:46:01.265Z,35.83
2022-12-31T12:48:32.813Z,14.40
2022-12-31T12:51:16.723Z,22.30
2022-12-31T12:54:43.446Z,12.95
2022-12-31T12:57:20.333Z,7.68
2022-12-31T12:59:49.328Z,26.15
2022-12-31T13:02:35.706Z,16.15
2022-12-31T13:05:43.455Z,12.70
2022-12-31T13:08:50.733Z,10.98
2022-12-31T13:11:39.736Z,20.02
2022-12-31T13:14:50.705Z,25.27
2022-12-31T13:17:54.101Z,11.80
2022-12-31T13:20:42.319Z,14.23
2022-12-31T13:23:36.194Z,16.67
2022-12-31T13:26:09.472Z,14.57
2022-12-31T13:28:43.949Z,6.32
2022-12-31T13:31:29.300Z,31.08
2022-12-31T13:34:04.192Z,20.92
2022-12-31T13:36:34.632Z,21.33
2022-12-31T13:39:05.713Z,14.75
2022-12-31T13:41:42.966Z,18.75
2022-12-31T13:46:43.287Z,19.50
2022-12-31T13:49:23.246Z,21.08
2022-12-31T13:52:01.154Z,36.05
2022-12-31T13:54:38.885Z,26.67
2022-12-31T13:57:30.268Z,18.38
2022-12-31T14:00:03.386Z,19.35
2022-12-31T14:02:43.487Z,32.40
2022-12-31T14:05:13.441Z,33.15
2022-12-31T14:07:54.404Z,26.20
2022-12-31T14:10:44.482Z,18.30
2022-12-31T14:13:32.445Z,19.63
2022-12-31T14:16:43.162Z,29.67
2022-12-31T14:19:39.407Z,30.92
2022-12-31T14:22:38.759Z,11.20
2022-12-31T14:25:31.291Z,19.73
2022-12-31T14:28:04.854Z,22.92
2022-12-31T14:30:42.335Z,16.15
2022-12-31T14:33:25.404Z,15.27
2022-12-31T14:36:33.776Z,14.43
2022-12-31T14:39:19.915Z,25.75
2022-12-31T14:42:15.915Z,34.80
2022-12-31T14:45:17.818Z,28.80
2022-12-31T14:48:06.735Z,16.92
2022-12-31T14:50:34.810Z,40.13
2022-12-31T14:53:06.506Z,34.15
2022-12-31T14:55:41.024Z,27.23
2022-12-31T14:58:37.283Z,26.27
2022-12-31T15:01:22.584Z,29.90
2022-12-31T15:03:50.703Z,40.55
2022-12-31T15:06:24.008Z,25.58
2022-12-31T15:08:51.867Z,47.83
2022-12-31T15:11:51.260Z,53.83
2022-12-31T15:14:42.199Z,49.95
2022-12-31T15:17:09.953Z,38.60
2022-12-31T15:19:55.879Z,49.28
2022-12-31T15:22:38.302Z,62.97
2022-12-31T15:25:26.427Z,49.88
2022-12-31T15:27:56.336Z,45.42
2022-12-31T15:30:50.166Z,47.88
2022-12-31T15:33:37.795Z,37.00
2022-12-31T15:36:24.056Z,44.33
2022-12-31T15:38:51.722Z,35.90
2022-12-31T15:41:19.710Z,72.35
2022-12-31T15:44:00.456Z,60.72
2022-12-31T15:46:37.767Z,27.73
2022-12-31T15:49:25.857Z,43.92
2022-12-31T15:52:13.196Z,62.63
2022-12-31T15:54:53.275Z,69.90
2022-12-31T15:57:32.375Z,55.72
2022-12-31T16:00:06.379Z,57.10
2022-12-31T16:02:34.589Z,37.05
2022-12-31T16:05:02.328Z,38.15
2022-12-31T16:07:30.811Z,83.63
2022-12-31T16:10:00.219Z,35.65
2022-12-31T16:12:35.153Z,50.55
2022-12-31T16:15:06.113Z,76.00
2022-12-31T16:17:35.619Z,32.22
2022-12-31T16:20:24.615Z,46.70
2022-12-31T16:22:56.291Z,58.78
2022-12-31T16:25:33.151Z,65.63
2022-12-31T16:28:03.278Z,62.00
2022-12-31T16:30:32.589Z,53.33
2022-12-31T16:33:03.664Z,56.75
2022-12-31T16:35:39.266Z,43.33
2022-12-31T16:38:17.093Z,62.20
2022-12-31T16:41:17.960Z,50.45
2022-12-31T16:43:46.899Z,52.28
2022-12-31T16:46:23.076Z,51.72
2022-12-31T16:48:57.233Z,41.10
2022-12-31T16:51:29.054Z,52.70
2022-12-31T16:53:57.352Z,51.97
2022-12-31T16:56:34.418Z,63.97
2022-12-31T16:59:07.173Z,45.13
2022-12-31T17:01:38.933Z,52.17
2022-12-31T17:04:12.314Z,54.78
2022-12-31T17:06:42.240Z,24.23
2022-12-31T17:09:31.328Z,40.28
2022-12-31T17:12:15.680Z,29.73
2022-12-31T17:14:51.370Z,40.63
2022-12-31T17:17:24.864Z,44.40
2022-12-31T17:19:58.195Z,26.08
2022-12-31T17:22:36.372Z,71.38
2022-12-31T17:25:10.741Z,69.57
2022-12-31T17:27:38.307Z,32.45
2022-12-31T17:30:40.452Z,45.72
2022-12-31T17:33:09.081Z,46.40
2022-12-31T17:35:42.093Z,61.20
2022-12-31T17:38:23.044Z,42.53
2022-12-31T17:41:05.491Z,31.95
2022-12-31T17:43:39.607Z,61.33
2022-12-31T17:46:16.482Z,55.88
2022-12-31T17:48:46.159Z,34.17
2022-12-31T17:51:15.162Z,48.00
2022-12-31T17:53:44.663Z,45.85
2022-12-31T17:56:18.290Z,48.95
2022-12-31T17:58:53.665Z,27.48
2022-12-31T18:01:23.336Z,62.08
2022-12-31T18:03:50.986Z,32.38
2022-12-31T18:06:21.146Z,39.55
2022-12-31T18:08:49.049Z,39.08
2022-12-31T18:11:19.883Z,21.67
2022-12-31T18:13:47.820Z,33.70
2022-12-31T18:16:15.586Z,39.92
2022-12-31T18:18:45.242Z,20.60
2022-12-31T18:21:32.417Z,40.38
2022-12-31T18:26:28.313Z,17.38
2022-12-31T18:28:58.352Z,40.78
2022-12-31T18:31:28.764Z,72.63
2022-12-31T18:33:58.155Z,44.72
2022-12-31T18:36:28.141Z,67.93
2022-12-31T18:38:55.994Z,37.67
2022-12-31T18:41:34.362Z,43.95
2022-12-31T18:44:03.490Z,31.55
2022-12-31T18:46:30.894Z,19.40
2022-12-31T18:48:58.354Z,30.80
2022-12-31T18:51:31.838Z,43.58
2022-12-31T18:54:04.602Z,26.48
2022-12-31T18:56:32.411Z,36.25
2022-12-31T18:59:00.210Z,31.33
2022-12-31T19:01:31.273Z,33.35
2022-12-31T19:04:02.166Z,44.25
2022-12-31T19:06:30.324Z,57.05
2022-12-31T19:09:00.870Z,42.20
2022-12-31T19:11:28.923Z,38.30
2022-12-31T19:13:56.132Z,29.52
2022-12-31T19:16:23.959Z,43.40
2022-12-31T19:18:52.093Z,27.63
2022-12-31T19:21:23.773Z,29.42
2022-12-31T19:23:52.209Z,54.88
2022-12-31T19:26:23.203Z,58.58
2022-12-31T19:28:52.035Z,25.33
2022-12-31T19:31:19.816Z,42.47
2022-12-31T19:33:47.857Z,27.08
2022-12-31T19:36:20.514Z,41.08
2022-12-31T19:38:48.473Z,35.08
2022-12-31T19:41:19.094Z,39.40
2022-12-31T19:43:48.229Z,31.08
2022-12-31T19:46:17.743Z,31.23
2022-12-31T19:48:46.233Z,27.98
2022-12-31T19:51:19.423Z,37.05
2022-12-31T19:53:47.912Z,39.25
2022-12-31T19:56:19.049Z,63.80
2022-12-31T19:58:47.249Z,36.90
2022-12-31T20:01:25.565Z,53.67
2022-12-31T20:03:53.699Z,37.40
2022-12-31T20:06:21.473Z,32.92
2022-12-31T20:08:50.858Z,45.70
2022-12-31T20:11:23.771Z,66.78
2022-12-31T20:13:55.035Z,34.22
2022-12-31T20:16:24.489Z,29.25
2022-12-31T20:18:52.575Z,16.38
2022-12-31T20:21:22.518Z,26.90
2022-12-31T20:23:51.816Z,47.55
2022-12-31T20:26:22.466Z,38.20
2022-12-31T20:28:52.044Z,47.03
2022-12-31T20:31:24.753Z,18.30
2022-12-31T20:33:54.140Z,28.13
2022-12-31T20:36:21.938Z,31.50
2022-12-31T20:38:49.673Z,42.97
2022-12-31T20:41:24.731Z,42.22
2022-12-31T20:43:52.777Z,12.88
2022-12-31T20:46:25.295Z,43.20
2022-12-31T20:48:55.700Z,22.42
2022-12-31T20:51:23.855Z,24.90
2022-12-31T20:53:57.519Z,28.23
2022-12-31T20:56:28.193Z,31.90
2022-12-31T20:58:56.466Z,29.70
2022-12-31T21:01:25.130Z,26.23
2022-12-31T21:04:05.259Z,21.60
2022-12-31T21:06:34.931Z,42.53
2022-12-31T21:09:07.184Z,16.90
2022-12-31T21:11:56.255Z,32.90
2022-12-31T21:14:23.710Z,12.43
2022-12-31T21:16:53.688Z,28.83
2022-12-31T21:19:21.522Z,28.00
2022-12-31T21:21:50.084Z,30.35
2022-12-31T21:24:23.485Z,22.05
2022-12-31T21:26:52.358Z,18.13
2022-12-31T21:29:19.709Z,29.33
2022-12-31T21:31:48.665Z,26.95
2022-12-31T21:34:16.423Z,17.52
2022-12-31T21:36:44.012Z,26.05
2022-12-31T21:39:11.741Z,28.70
2022-12-31T21:41:51.339Z,19.20
2022-12-31T21:44:20.898Z,12.82
2022-12-31T21:47:39.500Z,15.32
2022-12-31T21:50:08.027Z,4.10
2022-12-31T21:52:35.606Z,19.65
2022-12-31T21:55:23.628Z,20.73
2022-12-31T21:58:24.911Z,11.05
2022-12-31T22:00:58.091Z,16.27
2022-12-31T22:03:27.834Z,23.40
2022-12-31T22:06:20.876Z,8.02
2022-12-31T22:08:54.843Z,13.75
2022-12-31T22:11:29.028Z,11.73
2022-12-31T22:13:57.122Z,23.13
2022-12-31T22:16:24.771Z,11.43
2022-12-31T22:18:56.854Z,25.08
2022-12-31T22:21:25.708Z,18.52
2022-12-31T22:23:55.342Z,18.88
2022-12-31T22:26:25.529Z,24.15
2022-12-31T22:28:53.280Z,26.73
2022-12-31T22:31:24.578Z,14.98
2022-12-31T22:33:52.969Z,28.45
2022-12-31T22:36:23.738Z,11.63
2022-12-31T22:38:55.724Z,12.55
2022-12-31T22:41:24.961Z,18.05
2022-12-31T22:44:02.244Z,21.02
2022-12-31T22:46:32.638Z,13.52
2022-12-31T22:49:01.215Z,6.57
2022-12-31T22:51:56.758Z,16.60
2022-12-31T22:54:17.457Z,21.98
2022-12-31T22:56:44.805Z,13.38
2022-12-31T22:59:12.273Z,19.00
2022-12-31T23:01:39.612Z,11.73
2022-12-31T23:04:07.293Z,13.15
2022-12-31T23:06:43.467Z,20.55
2022-12-31T23:09:31.350Z,18.00
2022-12-31T23:11:59.438Z,17.55
2022-12-31T23:14:45.854Z,10.98
2022-12-31T23:17:41.982Z,22.10
2022-12-31T23:20:37.155Z,27.45
2022-12-31T23:23:11.619Z,7.57
2022-12-31T23:25:52.640Z,11.80
2022-12-31T23:28:23.501Z,18.67
2022-12-31T23:30:51.564Z,12.13
2022-12-31T23:33:24.914Z,25.40
2022-12-31T23:36:06.058Z,19.27
2022-12-31T23:38:33.502Z,10.55
2022-12-31T23:41:11.167Z,9.02
2022-12-31T23:43:38.527Z,10.70
2022-12-31T23:46:05.907Z,6.25
2022-12-31T23:48:33.363Z,19.83
2022-12-31T23:51:01.328Z,16.33
2022-12-31T23:53:29.062Z,8.48
2022-12-31T23:56:24.027Z,16.23
2022-12-31T23:58:56.363Z,15.88
